createdAt,value
2019-04-23T00:00:20.479Z,97670.69
2019-04-23T00:03:13.977Z,97667.23
2019-04-23T00:10:53.950Z,97665.01
2019-04-23T00:13:09.058Z,97656.81
2019-04-23T00:16:03.015Z,97655.84
2019-04-23T00:21:05.832Z,97655.45
2019-04-23T00:23:35.240Z,97663.08
2019-04-23T00:26:12.847Z,97656.36
2019-04-23T00:28:41.543Z,97655.52
2019-04-23T00:33:57.500Z,97648.02
2019-04-23T00:36:19.887Z,97650.63
2019-04-23T00:38:46.939Z,97643.51
2019-04-23T00:41:20.830Z,97650.01
2019-04-23T00:43:51.166Z,97648.45
2019-04-23T00:46:23.420Z,97644.88
2019-04-23T00:48:59.178Z,97640.49
2019-04-23T00:51:27.719Z,97643.56
2019-04-23T00:53:51.447Z,97638.84
2019-04-23T00:56:38.672Z,97642.20
2019-04-23T00:58:56.456Z,97642.31
2019-04-23T01:03:57.860Z,97647.30
2019-04-23T01:06:47.655Z,97642.28
2019-04-23T01:09:06.853Z,97641.25
2019-04-23T01:14:01.044Z,97636.39
2019-04-23T01:16:32.945Z,97633.25
2019-04-23T01:19:20.649Z,97632.92
2019-04-23T01:21:26.516Z,97636.72
2019-04-23T01:24:14.147Z,97633.77
2019-04-23T01:27:39.295Z,97636.72
2019-04-23T01:29:58.498Z,97636.20
2019-04-23T01:32:32.170Z,97634.46
2019-04-23T01:35:06.591Z,97635.61
2019-04-23T01:37:36.513Z,97638.00
2019-04-23T01:40:07.810Z,97640.63
2019-04-23T01:42:42.189Z,97625.20
2019-04-23T01:45:13.265Z,97630.66
2019-04-23T01:47:43.836Z,97633.58
2019-04-23T01:52:48.235Z,97633.80
2019-04-23T01:55:19.888Z,97633.09
2019-04-23T01:57:51.334Z,97626.38
2019-04-23T02:02:49.627Z,97627.11
2019-04-23T02:05:23.206Z,97636.02
2019-04-23T02:07:58.439Z,97631.82
2019-04-23T02:10:29.533Z,97632.14
2019-04-23T02:12:56.425Z,97631.83
2019-04-23T02:15:26.510Z,97629.52
2019-04-23T02:17:58.736Z,97628.36
2019-04-23T02:20:29.306Z,97626.27
2019-04-23T02:26:01.276Z,97620.54
2019-04-23T02:50:57.392Z,97595.88
2019-04-23T02:53:45.538Z,97593.37
2019-04-23T02:58:54.389Z,97587.93
2019-04-23T03:01:19.549Z,97585.20
2019-04-23T03:03:42.753Z,97588.66
2019-04-23T03:11:20.004Z,97580.34
2019-04-23T03:16:29.443Z,97567.41
2019-04-23T03:19:01.562Z,97569.02
2019-04-23T03:21:42.598Z,97567.23
2019-04-23T03:24:20.801Z,97572.23
2019-04-23T03:27:15.182Z,97567.14
2019-04-23T03:29:40.459Z,97562.23
2019-04-23T03:37:23.519Z,97557.98
2019-04-23T03:39:55.078Z,97563.76
2019-04-23T03:44:47.857Z,97558.37
2019-04-23T03:47:13.888Z,97557.22
2019-04-23T03:57:18.221Z,97539.80
2019-04-23T04:02:37.695Z,97540.52
2019-04-23T04:07:30.782Z,97540.89
2019-04-23T04:09:52.084Z,97541.62
2019-04-23T04:17:35.236Z,97539.11
2019-04-23T04:20:20.252Z,97543.91
2019-04-23T04:22:37.804Z,97534.78
2019-04-23T04:27:45.617Z,97536.38
2019-04-23T04:30:10.782Z,97539.60
2019-04-23T04:32:53.386Z,97533.09
2019-04-23T04:35:22.373Z,97529.43
2019-04-23T04:42:59.026Z,97515.48
2019-04-23T04:45:30.380Z,97519.14
2019-04-23T04:47:44.714Z,97519.91
2019-04-23T04:50:25.947Z,97519.35
2019-04-23T04:55:28.362Z,97518.38
2019-04-23T04:58:00.503Z,97521.91
2019-04-23T05:00:42.977Z,97517.53
2019-04-23T05:06:01.328Z,97520.76
2019-04-23T05:08:15.957Z,97522.28
2019-04-23T05:13:32.023Z,97518.45
2019-04-23T05:15:44.797Z,97527.89
2019-04-23T05:18:39.923Z,97521.27
2019-04-23T05:21:01.891Z,97519.40
2019-04-23T05:23:43.057Z,97523.89
2019-04-23T05:26:02.854Z,97520.20
2019-04-23T05:28:40.993Z,97523.33
2019-04-23T05:31:12.373Z,97521.17
2019-04-23T05:33:45.167Z,97516.13
2019-04-23T05:41:20.007Z,97516.91
2019-04-23T05:43:46.475Z,97509.17
2019-04-23T05:46:25.076Z,97510.03
2019-04-23T05:48:58.034Z,97506.20
2019-04-23T05:53:50.957Z,97505.19
2019-04-23T05:56:24.289Z,97498.91
2019-04-23T05:58:58.216Z,97497.91
2019-04-23T06:01:51.169Z,97493.53
2019-04-23T06:09:12.751Z,97492.69
2019-04-23T06:14:13.459Z,97492.86
2019-04-23T06:16:41.856Z,97493.51
2019-04-23T06:19:15.791Z,97496.97
2019-04-23T06:21:59.864Z,97493.22
2019-04-23T06:24:24.925Z,97483.59
2019-04-23T06:26:51.630Z,97492.50
2019-04-23T06:29:28.591Z,97489.25
2019-04-23T06:31:55.295Z,97491.13
2019-04-23T06:36:57.477Z,97491.52
2019-04-23T06:39:38.172Z,97488.41
2019-04-23T06:42:00.454Z,97492.05
2019-04-23T06:44:44.978Z,97502.22
2019-04-23T06:47:16.771Z,97498.55
2019-04-23T06:49:54.517Z,97499.58
2019-04-23T06:52:18.979Z,97503.00
2019-04-23T06:54:56.571Z,97487.72
2019-04-23T06:57:23.786Z,97498.44
2019-04-23T06:59:55.564Z,97492.02
2019-04-23T07:02:25.894Z,97499.63
2019-04-23T07:05:03.441Z,97500.30
2019-04-23T07:07:43.055Z,97495.20
2019-04-23T07:09:58.018Z,97497.34
2019-04-23T07:12:38.573Z,97497.42
2019-04-23T07:17:29.023Z,97499.84
2019-04-23T07:20:07.128Z,97497.90
2019-04-23T07:22:34.870Z,97496.53
2019-04-23T07:25:12.803Z,97487.20
2019-04-23T07:27:43.083Z,97490.39
2019-04-23T07:30:23.753Z,97488.54
2019-04-23T07:32:52.981Z,97482.19
2019-04-23T07:35:16.051Z,97489.64
2019-04-23T07:38:08.286Z,97482.81
2019-04-23T07:43:22.535Z,97474.77
2019-04-23T07:46:20.260Z,97470.66
2019-04-23T07:48:43.955Z,97471.22
2019-04-23T07:51:21.024Z,97475.70
2019-04-23T07:54:01.293Z,97466.44
2019-04-23T07:56:45.623Z,97474.28
2019-04-23T07:58:52.535Z,97470.52
2019-04-23T08:01:32.128Z,97465.89
2019-04-23T08:04:01.911Z,97466.02
2019-04-23T08:06:41.310Z,97460.30
2019-04-23T08:09:10.925Z,97458.23
2019-04-23T08:14:08.425Z,97444.56
2019-04-23T08:16:36.833Z,97444.55
2019-04-23T08:19:25.505Z,97446.55
2019-04-23T08:21:58.193Z,97441.14
2019-04-23T08:24:47.972Z,97438.86
2019-04-23T08:27:18.314Z,97432.27
2019-04-23T08:29:43.956Z,97429.31
2019-04-23T08:32:19.600Z,97433.73
2019-04-23T08:34:58.387Z,97430.39
2019-04-23T08:37:38.006Z,97421.23
2019-04-23T08:40:04.367Z,97426.82
2019-04-23T08:42:49.620Z,97424.12
2019-04-23T08:48:00.718Z,97425.41
2019-04-23T08:50:35.540Z,97436.67
2019-04-23T08:53:19.991Z,97439.52
2019-04-23T08:55:38.430Z,97435.14
2019-04-23T08:58:06.111Z,97438.28
2019-04-23T09:00:49.866Z,97437.56
2019-04-23T09:03:20.350Z,97435.95
2019-04-23T09:08:25.279Z,97439.09
2019-04-23T09:10:55.834Z,97429.52
2019-04-23T09:15:58.255Z,97422.90
2019-04-23T09:18:27.835Z,97415.66
2019-04-23T09:21:05.431Z,97427.48
2019-04-23T09:26:05.511Z,97418.22
2019-04-23T09:31:45.734Z,97411.52
2019-04-23T09:34:07.252Z,97410.06
2019-04-23T09:36:45.319Z,97410.98
2019-04-23T09:39:14.925Z,97419.98
2019-04-23T09:41:37.273Z,97415.20
2019-04-23T09:47:24.425Z,97419.85
2019-04-23T09:49:46.766Z,97415.41
2019-04-23T09:52:21.966Z,97421.08
2019-04-23T09:54:57.749Z,97408.27
2019-04-23T09:57:15.948Z,97414.12
2019-04-23T10:00:10.262Z,97416.43
2019-04-23T10:02:24.879Z,97410.81
2019-04-23T10:04:48.602Z,97410.77
2019-04-23T10:07:17.963Z,97418.23
2019-04-23T10:09:36.579Z,97406.09
2019-04-23T10:12:07.335Z,97406.95
2019-04-23T10:14:38.656Z,97408.39
2019-04-23T10:17:10.257Z,97409.85
2019-04-23T10:19:40.767Z,97401.75
2019-04-23T10:22:11.467Z,97410.37
2019-04-23T10:24:43.437Z,97409.51
2019-04-23T10:27:14.755Z,97406.55
2019-04-23T10:29:45.942Z,97403.03
2019-04-23T10:32:17.572Z,97400.45
2019-04-23T10:34:58.101Z,97399.48
2019-04-23T10:37:31.870Z,97396.14
2019-04-23T10:39:58.284Z,97396.14
2019-04-23T10:42:24.694Z,97385.23
2019-04-23T10:45:20.465Z,97391.25
2019-04-23T10:51:17.377Z,97385.67
2019-04-23T10:53:50.613Z,97390.02
2019-04-23T10:56:36.167Z,97396.55
2019-04-23T10:58:58.983Z,97395.44
2019-04-23T11:01:31.564Z,97390.91
2019-04-23T11:04:32.922Z,97399.49
2019-04-23T11:06:50.343Z,97394.58
2019-04-23T11:09:38.628Z,97393.92
2019-04-23T11:11:52.415Z,97387.59
2019-04-23T11:14:25.342Z,97393.14
2019-04-23T11:19:39.969Z,97390.00
2019-04-23T11:22:21.037Z,97388.88
2019-04-23T11:27:06.503Z,97390.10
2019-04-23T11:32:31.330Z,97392.14
2019-04-23T11:35:08.749Z,97381.72
2019-04-23T11:39:44.953Z,97391.63
2019-04-23T11:42:19.622Z,97389.25
2019-04-23T11:44:49.072Z,97398.09
2019-04-23T11:48:02.537Z,97403.27
2019-04-23T11:50:01.493Z,97403.96
2019-04-23T11:52:36.070Z,97400.43
2019-04-23T11:55:09.420Z,97399.08
2019-04-23T12:00:05.552Z,97397.50
2019-04-23T12:02:43.401Z,97392.27
2019-04-23T12:05:32.086Z,97387.89
2019-04-23T12:07:57.586Z,97389.55
2019-04-23T12:10:44.473Z,97387.45
2019-04-23T12:13:08.120Z,97385.28
2019-04-23T12:15:41.750Z,97381.77
2019-04-23T12:18:10.876Z,97379.79
2019-04-23T12:20:35.799Z,97384.11
2019-04-23T12:23:23.988Z,97395.14
2019-04-23T12:26:06.648Z,97397.80
2019-04-23T12:28:26.395Z,97394.55
2019-04-23T12:30:59.318Z,97401.87
2019-04-23T12:33:28.072Z,97404.73
2019-04-23T12:35:59.162Z,97403.91
2019-04-23T12:38:26.987Z,97407.98
2019-04-23T12:40:56.418Z,97408.63
2019-04-23T12:43:43.586Z,97413.53
2019-04-23T12:45:59.511Z,97419.20
2019-04-23T12:50:58.340Z,97418.42
2019-04-23T12:56:12.907Z,97413.62
2019-04-23T12:58:34.117Z,97408.11
2019-04-23T13:01:13.492Z,97407.56
2019-04-23T13:03:39.226Z,97405.55
2019-04-23T13:06:17.039Z,97402.75
2019-04-23T13:13:53.512Z,97402.46
2019-04-23T13:16:39.908Z,97391.02
2019-04-23T13:18:58.142Z,97383.83
2019-04-23T13:24:11.433Z,97386.14
2019-04-23T13:26:42.282Z,97390.59
2019-04-23T13:29:18.563Z,97382.86
2019-04-23T13:31:41.365Z,97389.22
2019-04-23T13:34:22.915Z,97381.17
2019-04-23T13:36:53.942Z,97379.20
2019-04-23T13:39:24.499Z,97383.35
2019-04-23T13:41:52.590Z,97386.30
2019-04-23T13:44:39.477Z,97388.20
2019-04-23T13:47:10.590Z,97378.45
2019-04-23T13:49:39.007Z,97385.38
2019-04-23T13:52:24.263Z,97384.49
2019-04-23T14:02:24.019Z,97375.64
2019-04-23T14:05:02.613Z,97374.00
2019-04-23T14:07:38.415Z,97377.86
2019-04-23T14:10:11.787Z,97378.11
2019-04-23T14:13:01.892Z,97371.23
2019-04-23T14:15:19.555Z,97373.72
2019-04-23T14:17:59.976Z,97364.87
2019-04-23T14:23:05.301Z,97368.71
2019-04-23T14:25:16.543Z,97375.54
2019-04-23T14:27:56.582Z,97371.84
2019-04-23T14:30:34.777Z,97370.25
2019-04-23T14:33:02.780Z,97373.14
2019-04-23T14:38:15.872Z,97372.52
2019-04-23T14:40:47.117Z,97371.48
2019-04-23T14:43:20.146Z,97372.19
2019-04-23T14:45:59.725Z,97371.81
2019-04-23T14:48:14.897Z,97370.94
2019-04-23T14:50:54.778Z,97366.38
2019-04-23T14:53:33.348Z,97366.91
2019-04-23T14:58:31.079Z,97366.45
2019-04-23T15:01:16.111Z,97378.00
2019-04-23T15:03:44.436Z,97373.30
2019-04-23T15:06:46.839Z,97363.61
2019-04-23T15:13:44.512Z,97361.21
2019-04-23T15:16:22.385Z,97354.44
2019-04-23T15:27:21.514Z,97351.12
2019-04-23T15:28:43.761Z,97351.11
2019-04-23T15:31:44.731Z,97344.06
2019-04-23T15:34:18.982Z,97348.04
2019-04-23T15:39:16.926Z,97353.32
2019-04-23T15:41:49.595Z,97346.43
2019-04-23T15:44:13.501Z,97347.64
2019-04-23T15:46:49.351Z,97345.95
2019-04-23T15:49:19.845Z,97347.03
2019-04-23T15:54:25.398Z,97352.20
2019-04-23T15:56:54.731Z,97345.66
2019-04-23T16:01:41.926Z,97339.91
2019-04-23T16:04:06.070Z,97340.19
2019-04-23T16:06:38.492Z,97341.87
2019-04-23T16:09:40.255Z,97339.58
2019-04-23T16:12:04.752Z,97335.48
2019-04-23T16:14:48.025Z,97336.07
2019-04-23T16:17:20.943Z,97335.25
2019-04-23T16:20:19.044Z,97332.75
2019-04-23T16:22:38.284Z,97330.53
2019-04-23T16:27:44.323Z,97336.28
2019-04-23T16:30:40.871Z,97340.48
2019-04-23T16:32:58.658Z,97342.73
2019-04-23T16:35:34.577Z,97337.72
2019-04-23T16:38:12.814Z,97341.04
2019-04-23T16:40:35.058Z,97329.85
2019-04-23T16:48:24.034Z,97340.70
2019-04-23T16:50:57.851Z,97344.39
2019-04-23T16:53:17.876Z,97344.30
2019-04-23T16:56:01.571Z,97343.46
2019-04-23T16:58:36.587Z,97339.20
2019-04-23T17:05:56.829Z,97344.64
2019-04-23T17:08:42.767Z,97342.84
2019-04-23T17:11:10.153Z,97342.42
2019-04-23T17:13:34.584Z,97346.42
2019-04-23T17:21:10.410Z,97341.59
2019-04-23T17:26:20.585Z,97334.19
2019-04-23T17:28:49.509Z,97336.00
2019-04-23T17:31:34.521Z,97337.22
2019-04-23T17:36:57.932Z,97344.00
2019-04-23T17:39:07.836Z,97344.79
2019-04-23T17:41:59.643Z,97346.12
2019-04-23T17:44:24.258Z,97344.58
2019-04-23T17:46:54.259Z,97349.27
2019-04-23T17:49:22.197Z,97343.06
2019-04-23T17:51:57.510Z,97347.85
2019-04-23T18:02:49.933Z,97351.05
2019-04-23T18:07:43.674Z,97366.17
2019-04-23T18:10:17.863Z,97366.38
2019-04-23T18:15:05.020Z,97374.58
2019-04-23T18:17:43.318Z,97375.88
2019-04-23T18:20:16.285Z,97382.45
2019-04-23T18:22:53.980Z,97374.22
2019-04-23T18:25:26.142Z,97376.30
2019-04-23T18:27:54.229Z,97375.33
2019-04-23T18:31:10.338Z,97377.92
2019-04-23T18:33:51.323Z,97377.96
2019-04-23T18:35:47.574Z,97379.58
2019-04-23T18:38:29.168Z,97379.97
2019-04-23T18:41:02.606Z,97386.45
2019-04-23T18:46:02.586Z,97389.72
2019-04-23T18:48:44.163Z,97393.02
2019-04-23T18:53:43.477Z,97408.14
2019-04-23T19:01:16.015Z,97411.48
2019-04-23T19:06:30.404Z,97414.28
2019-04-23T19:11:59.406Z,97418.27
2019-04-23T19:14:32.162Z,97418.86
2019-04-23T19:17:30.415Z,97430.57
2019-04-23T19:19:36.791Z,97432.09
2019-04-23T19:22:19.381Z,97433.60
2019-04-23T19:24:31.379Z,97431.48
2019-04-23T19:32:14.384Z,97440.16
2019-04-23T19:34:40.696Z,97441.05
2019-04-23T19:39:46.968Z,97439.49
2019-04-23T19:42:11.917Z,97442.39
2019-04-23T19:44:47.491Z,97443.05
2019-04-23T19:47:17.232Z,97453.50
2019-04-23T19:49:50.235Z,97454.33
2019-04-23T19:52:20.268Z,97451.62
2019-04-23T19:54:55.032Z,97459.66
2019-04-23T19:57:42.547Z,97459.44
2019-04-23T20:02:38.641Z,97459.98
2019-04-23T20:04:55.445Z,97464.33
2019-04-23T20:07:43.133Z,97472.03
2019-04-23T20:09:56.891Z,97471.75
2019-04-23T20:12:40.845Z,97472.33
2019-04-23T20:14:59.975Z,97474.44
2019-04-23T20:20:08.783Z,97478.65
2019-04-23T20:22:47.312Z,97478.87
2019-04-23T20:25:38.165Z,97480.66
2019-04-23T20:27:54.253Z,97481.09
2019-04-23T20:33:27.916Z,97490.03
2019-04-23T20:35:24.348Z,97496.55
2019-04-23T20:43:14.997Z,97490.05
2019-04-23T20:45:38.932Z,97495.63
2019-04-23T20:48:09.395Z,97493.53
2019-04-23T20:50:34.173Z,97493.45
2019-04-23T20:53:00.016Z,97495.84
2019-04-23T20:55:52.893Z,97497.47
2019-04-23T20:58:03.156Z,97500.42
2019-04-23T21:01:07.611Z,97499.91
2019-04-23T21:03:30.869Z,97502.74
2019-04-23T21:05:43.055Z,97500.13
2019-04-23T21:08:30.698Z,97498.57
2019-04-23T21:10:51.040Z,97492.70
2019-04-23T21:13:43.054Z,97502.05
2019-04-23T21:15:52.714Z,97502.97
2019-04-23T21:18:32.984Z,97508.19
2019-04-23T21:20:56.116Z,97506.01
2019-04-23T21:23:37.439Z,97509.05
2019-04-23T21:26:07.883Z,97512.94
2019-04-23T21:28:40.049Z,97517.20
2019-04-23T21:31:06.534Z,97517.02
2019-04-23T21:33:43.844Z,97526.44
2019-04-23T21:36:25.353Z,97524.98
2019-04-23T21:39:15.363Z,97524.11
2019-04-23T21:44:18.132Z,97536.66
2019-04-23T21:46:54.172Z,97532.27
2019-04-23T21:49:25.247Z,97535.30
2019-04-23T21:51:53.815Z,97528.91
2019-04-23T21:54:21.158Z,97534.56
2019-04-23T21:59:17.567Z,97534.56
2019-04-23T22:01:55.930Z,97535.30
2019-04-23T22:12:05.191Z,97540.20
2019-04-23T22:14:33.433Z,97543.83
2019-04-23T22:17:09.608Z,97546.30
2019-04-23T22:19:29.518Z,97551.02
2019-04-23T22:22:22.165Z,97544.81
2019-04-23T22:24:33.160Z,97547.11
2019-04-23T22:27:06.524Z,97542.90
2019-04-23T22:32:05.533Z,97543.41
2019-04-23T22:39:45.729Z,97544.63
2019-04-23T22:45:02.982Z,97541.94
2019-04-23T22:47:13.591Z,97539.69
2019-04-23T22:50:05.825Z,97541.59
2019-04-23T22:52:23.321Z,97536.87
2019-04-23T22:57:39.501Z,97537.67
2019-04-23T23:00:11.224Z,97538.59
2019-04-23T23:07:48.965Z,97543.44
2019-04-23T23:10:12.834Z,97546.53
2019-04-23T23:12:52.810Z,97548.30
2019-04-23T23:15:15.935Z,97544.95
2019-04-23T23:17:52.643Z,97542.95
2019-04-23T23:22:52.284Z,97544.51
2019-04-23T23:25:19.145Z,97547.73
2019-04-23T23:27:54.270Z,97547.64
2019-04-23T23:32:51.849Z,97549.66
2019-04-23T23:35:24.543Z,97552.23
2019-04-23T23:37:49.898Z,97555.57
2019-04-23T23:40:20.318Z,97563.66
2019-04-23T23:43:03.686Z,97558.63
2019-04-23T23:48:10.103Z,97563.63
2019-04-23T23:50:25.523Z,97563.08
2019-04-23T23:53:58.545Z,97561.08
2019-04-23T23:55:27.719Z,97565.70
2019-04-23T23:58:06.769Z,97566.20
